sensor_id;sensor_type;location;lat;lon;timestamp;P1;durP1;ratioP1;P2;durP2;ratioP2
35330;SDS011;21441;52.190;20.910;2023-04-16T00:02:13;5.20;;;4.35;;
35330;SDS011;21441;52.190;20.910;2023-04-16T00:04:41;6.07;;;4.40;;
35330;SDS011;21441;52.190;20.910;2023-04-16T00:07:08;6.85;;;5.05;;
35330;SDS011;21441;52.190;20.910;2023-04-16T00:09:37;5.82;;;4.50;;
35330;SDS011;21441;52.190;20.910;2023-04-16T00:12:04;6.22;;;4.70;;
35330;SDS011;21441;52.190;20.910;2023-04-16T00:14:32;6.70;;;5.22;;
35330;SDS011;21441;52.190;20.910;2023-04-16T00:16:58;6.43;;;4.70;;
35330;SDS011;21441;52.190;20.910;2023-04-16T00:19:26;5.65;;;4.82;;
35330;SDS011;21441;52.190;20.910;2023-04-16T00:21:53;6.80;;;5.22;;
35330;SDS011;21441;52.190;20.910;2023-04-16T00:24:20;6.10;;;4.60;;
35330;SDS011;21441;52.190;20.910;2023-04-16T00:26:48;6.68;;;5.25;;
35330;SDS011;21441;52.190;20.910;2023-04-16T00:29:15;8.50;;;5.75;;
35330;SDS011;21441;52.190;20.910;2023-04-16T00:31:43;5.80;;;5.15;;
35330;SDS011;21441;52.190;20.910;2023-04-16T00:34:11;8.43;;;5.38;;
35330;SDS011;21441;52.190;20.910;2023-04-16T00:36:37;5.90;;;5.28;;
35330;SDS011;21441;52.190;20.910;2023-04-16T00:39:05;5.70;;;5.10;;
35330;SDS011;21441;52.190;20.910;2023-04-16T00:41:32;5.97;;;5.35;;
35330;SDS011;21441;52.190;20.910;2023-04-16T00:44:01;7.63;;;5.15;;
35330;SDS011;21441;52.190;20.910;2023-04-16T00:46:28;7.00;;;5.43;;
35330;SDS011;21441;52.190;20.910;2023-04-16T00:48:56;7.70;;;5.72;;
35330;SDS011;21441;52.190;20.910;2023-04-16T00:51:23;8.60;;;6.03;;
35330;SDS011;21441;52.190;20.910;2023-04-16T00:53:51;7.32;;;5.63;;
35330;SDS011;21441;52.190;20.910;2023-04-16T00:56:18;6.72;;;5.30;;
35330;SDS011;21441;52.190;20.910;2023-04-16T00:58:48;7.57;;;5.72;;
35330;SDS011;21441;52.190;20.910;2023-04-16T01:01:17;6.43;;;5.10;;
35330;SDS011;21441;52.190;20.910;2023-04-16T01:03:44;7.22;;;5.20;;
35330;SDS011;21441;52.190;20.910;2023-04-16T01:06:13;5.78;;;5.18;;
35330;SDS011;21441;52.190;20.910;2023-04-16T01:08:40;7.68;;;5.20;;
35330;SDS011;21441;52.190;20.910;2023-04-16T01:11:08;5.75;;;5.15;;
35330;SDS011;21441;52.190;20.910;2023-04-16T01:13:36;6.10;;;5.50;;
35330;SDS011;21441;52.190;20.910;2023-04-16T01:16:04;7.25;;;5.13;;
35330;SDS011;21441;52.190;20.910;2023-04-16T01:18:33;5.53;;;4.93;;
35330;SDS011;21441;52.190;20.910;2023-04-16T01:21:02;6.97;;;5.85;;
35330;SDS011;21441;52.190;20.910;2023-04-16T01:23:30;6.40;;;5.55;;
35330;SDS011;21441;52.190;20.910;2023-04-16T01:25:57;6.10;;;5.43;;
35330;SDS011;21441;52.190;20.910;2023-04-16T01:28:24;5.90;;;4.93;;
35330;SDS011;21441;52.190;20.910;2023-04-16T01:30:52;6.78;;;5.45;;
35330;SDS011;21441;52.190;20.910;2023-04-16T01:33:19;8.18;;;5.47;;
35330;SDS011;21441;52.190;20.910;2023-04-16T01:35:46;6.28;;;5.10;;
35330;SDS011;21441;52.190;20.910;2023-04-16T01:38:15;7.15;;;5.70;;
35330;SDS011;21441;52.190;20.910;2023-04-16T01:40:42;7.75;;;5.85;;
35330;SDS011;21441;52.190;20.910;2023-04-16T01:43:09;7.05;;;5.65;;
35330;SDS011;21441;52.190;20.910;2023-04-16T01:45:36;7.55;;;5.97;;
35330;SDS011;21441;52.190;20.910;2023-04-16T01:48:03;7.65;;;6.43;;
35330;SDS011;21441;52.190;20.910;2023-04-16T01:50:31;7.88;;;6.25;;
35330;SDS011;21441;52.190;20.910;2023-04-16T01:52:59;8.68;;;6.50;;
35330;SDS011;21441;52.190;20.910;2023-04-16T01:55:28;8.18;;;6.95;;
35330;SDS011;21441;52.190;20.910;2023-04-16T01:57:55;9.40;;;6.55;;
35330;SDS011;21441;52.190;20.910;2023-04-16T02:00:22;9.70;;;7.43;;
35330;SDS011;21441;52.190;20.910;2023-04-16T02:02:49;9.65;;;7.45;;
35330;SDS011;21441;52.190;20.910;2023-04-16T02:05:16;9.18;;;7.63;;
35330;SDS011;21441;52.190;20.910;2023-04-16T02:07:43;10.07;;;7.13;;
35330;SDS011;21441;52.190;20.910;2023-04-16T02:10:10;11.40;;;8.13;;
35330;SDS011;21441;52.190;20.910;2023-04-16T02:12:39;10.02;;;8.13;;
35330;SDS011;21441;52.190;20.910;2023-04-16T02:15:06;12.68;;;9.88;;
35330;SDS011;21441;52.190;20.910;2023-04-16T02:17:34;12.18;;;9.18;;
35330;SDS011;21441;52.190;20.910;2023-04-16T02:20:01;9.57;;;7.75;;
35330;SDS011;21441;52.190;20.910;2023-04-16T02:22:30;10.63;;;8.45;;
35330;SDS011;21441;52.190;20.910;2023-04-16T02:24:58;10.27;;;9.13;;
35330;SDS011;21441;52.190;20.910;2023-04-16T02:27:24;10.55;;;9.05;;
35330;SDS011;21441;52.190;20.910;2023-04-16T02:29:53;8.77;;;7.30;;
35330;SDS011;21441;52.190;20.910;2023-04-16T02:32:20;8.77;;;6.95;;
35330;SDS011;21441;52.190;20.910;2023-04-16T02:34:47;9.20;;;5.97;;
35330;SDS011;21441;52.190;20.910;2023-04-16T02:37:14;8.65;;;6.22;;
35330;SDS011;21441;52.190;20.910;2023-04-16T02:39:41;7.80;;;6.47;;
35330;SDS011;21441;52.190;20.910;2023-04-16T02:42:09;7.63;;;6.57;;
35330;SDS011;21441;52.190;20.910;2023-04-16T02:44:36;8.80;;;6.93;;
35330;SDS011;21441;52.190;20.910;2023-04-16T02:47:05;11.07;;;6.25;;
35330;SDS011;21441;52.190;20.910;2023-04-16T02:49:32;8.23;;;5.97;;
35330;SDS011;21441;52.190;20.910;2023-04-16T02:52:00;7.45;;;6.00;;
35330;SDS011;21441;52.190;20.910;2023-04-16T02:54:27;7.40;;;5.93;;
35330;SDS011;21441;52.190;20.910;2023-04-16T02:56:54;9.65;;;6.45;;
35330;SDS011;21441;52.190;20.910;2023-04-16T02:59:21;12.00;;;7.47;;
35330;SDS011;21441;52.190;20.910;2023-04-16T03:01:48;9.32;;;7.82;;
35330;SDS011;21441;52.190;20.910;2023-04-16T03:04:16;9.10;;;6.63;;
35330;SDS011;21441;52.190;20.910;2023-04-16T03:06:43;11.20;;;7.43;;
35330;SDS011;21441;52.190;20.910;2023-04-16T03:09:11;9.07;;;6.93;;
35330;SDS011;21441;52.190;20.910;2023-04-16T03:11:38;12.02;;;8.60;;
35330;SDS011;21441;52.190;20.910;2023-04-16T03:14:05;10.60;;;6.95;;
35330;SDS011;21441;52.190;20.910;2023-04-16T03:16:32;10.23;;;7.60;;
35330;SDS011;21441;52.190;20.910;2023-04-16T03:18:59;14.25;;;8.48;;
35330;SDS011;21441;52.190;20.910;2023-04-16T03:21:27;11.88;;;8.25;;
35330;SDS011;21441;52.190;20.910;2023-04-16T03:23:56;12.77;;;8.50;;
35330;SDS011;21441;52.190;20.910;2023-04-16T03:26:22;11.13;;;8.65;;
35330;SDS011;21441;52.190;20.910;2023-04-16T03:28:50;10.57;;;8.52;;
35330;SDS011;21441;52.190;20.910;2023-04-16T03:31:17;12.30;;;8.15;;
35330;SDS011;21441;52.190;20.910;2023-04-16T03:33:44;14.57;;;9.52;;
35330;SDS011;21441;52.190;20.910;2023-04-16T03:36:12;11.00;;;9.60;;
35330;SDS011;21441;52.190;20.910;2023-04-16T03:38:40;15.13;;;9.50;;
35330;SDS011;21441;52.190;20.910;2023-04-16T03:41:07;12.15;;;9.15;;
35330;SDS011;21441;52.190;20.910;2023-04-16T03:43:35;10.02;;;8.40;;
35330;SDS011;21441;52.190;20.910;2023-04-16T03:46:02;15.07;;;9.43;;
35330;SDS011;21441;52.190;20.910;2023-04-16T03:48:29;12.68;;;9.23;;
35330;SDS011;21441;52.190;20.910;2023-04-16T03:50:56;14.20;;;9.50;;
35330;SDS011;21441;52.190;20.910;2023-04-16T03:53:23;13.27;;;8.90;;
35330;SDS011;21441;52.190;20.910;2023-04-16T03:55:51;12.00;;;8.65;;
35330;SDS011;21441;52.190;20.910;2023-04-16T03:58:19;12.80;;;9.50;;
35330;SDS011;21441;52.190;20.910;2023-04-16T04:00:46;16.85;;;9.80;;
35330;SDS011;21441;52.190;20.910;2023-04-16T04:03:13;12.88;;;9.63;;
35330;SDS011;21441;52.190;20.910;2023-04-16T04:05:41;14.05;;;9.02;;
35330;SDS011;21441;52.190;20.910;2023-04-16T04:08:09;14.95;;;9.68;;
35330;SDS011;21441;52.190;20.910;2023-04-16T04:10:36;13.40;;;9.45;;
35330;SDS011;21441;52.190;20.910;2023-04-16T04:13:05;12.65;;;9.30;;
35330;SDS011;21441;52.190;20.910;2023-04-16T04:15:32;11.82;;;8.63;;
35330;SDS011;21441;52.190;20.910;2023-04-16T04:17:59;13.63;;;9.20;;
35330;SDS011;21441;52.190;20.910;2023-04-16T04:20:26;14.98;;;9.05;;
35330;SDS011;21441;52.190;20.910;2023-04-16T04:22:54;16.20;;;10.02;;
35330;SDS011;21441;52.190;20.910;2023-04-16T04:25:21;14.00;;;9.23;;
35330;SDS011;21441;52.190;20.910;2023-04-16T04:27:48;11.55;;;9.27;;
35330;SDS011;21441;52.190;20.910;2023-04-16T04:30:17;12.32;;;9.20;;
35330;SDS011;21441;52.190;20.910;2023-04-16T04:32:44;15.55;;;9.32;;
35330;SDS011;21441;52.190;20.910;2023-04-16T04:35:11;12.57;;;9.55;;
35330;SDS011;21441;52.190;20.910;2023-04-16T04:37:38;10.40;;;8.20;;
35330;SDS011;21441;52.190;20.910;2023-04-16T04:40:06;12.65;;;8.75;;
35330;SDS011;21441;52.190;20.910;2023-04-16T04:42:35;11.63;;;8.70;;
35330;SDS011;21441;52.190;20.910;2023-04-16T04:45:03;13.55;;;9.45;;
35330;SDS011;21441;52.190;20.910;2023-04-16T04:47:32;11.93;;;9.07;;
35330;SDS011;21441;52.190;20.910;2023-04-16T04:50:00;12.45;;;9.20;;
35330;SDS011;21441;52.190;20.910;2023-04-16T04:52:27;13.23;;;9.43;;
35330;SDS011;21441;52.190;20.910;2023-04-16T04:54:54;11.15;;;8.60;;
35330;SDS011;21441;52.190;20.910;2023-04-16T04:57:22;11.80;;;8.55;;
35330;SDS011;21441;52.190;20.910;2023-04-16T04:59:49;11.43;;;8.50;;
35330;SDS011;21441;52.190;20.910;2023-04-16T05:02:16;12.75;;;9.35;;
35330;SDS011;21441;52.190;20.910;2023-04-16T05:04:44;12.50;;;9.02;;
35330;SDS011;21441;52.190;20.910;2023-04-16T05:07:11;15.07;;;8.88;;
35330;SDS011;21441;52.190;20.910;2023-04-16T05:09:38;11.00;;;8.57;;
35330;SDS011;21441;52.190;20.910;2023-04-16T05:12:06;10.32;;;8.93;;
35330;SDS011;21441;52.190;20.910;2023-04-16T05:14:32;12.73;;;9.43;;
35330;SDS011;21441;52.190;20.910;2023-04-16T05:17:00;13.45;;;8.82;;
35330;SDS011;21441;52.190;20.910;2023-04-16T05:19:27;10.65;;;8.90;;
35330;SDS011;21441;52.190;20.910;2023-04-16T05:21:56;16.48;;;9.73;;
35330;SDS011;21441;52.190;20.910;2023-04-16T05:24:23;14.25;;;9.77;;
35330;SDS011;21441;52.190;20.910;2023-04-16T05:26:50;11.88;;;9.52;;
35330;SDS011;21441;52.190;20.910;2023-04-16T05:29:17;12.32;;;8.85;;
35330;SDS011;21441;52.190;20.910;2023-04-16T05:31:45;10.70;;;8.60;;
35330;SDS011;21441;52.190;20.910;2023-04-16T05:34:12;11.95;;;9.15;;
35330;SDS011;21441;52.190;20.910;2023-04-16T05:36:39;13.00;;;9.48;;
35330;SDS011;21441;52.190;20.910;2023-04-16T05:39:07;12.40;;;8.70;;
35330;SDS011;21441;52.190;20.910;2023-04-16T05:41:35;13.82;;;9.55;;
35330;SDS011;21441;52.190;20.910;2023-04-16T05:44:02;12.48;;;9.07;;
35330;SDS011;21441;52.190;20.910;2023-04-16T05:46:30;13.27;;;9.80;;
35330;SDS011;21441;52.190;20.910;2023-04-16T05:48:57;11.35;;;8.88;;
35330;SDS011;21441;52.190;20.910;2023-04-16T05:51:24;12.45;;;8.50;;
35330;SDS011;21441;52.190;20.910;2023-04-16T05:53:51;10.98;;;8.75;;
35330;SDS011;21441;52.190;20.910;2023-04-16T05:56:20;13.77;;;8.75;;
35330;SDS011;21441;52.190;20.910;2023-04-16T05:58:47;13.65;;;8.57;;
35330;SDS011;21441;52.190;20.910;2023-04-16T06:01:15;13.38;;;8.73;;
35330;SDS011;21441;52.190;20.910;2023-04-16T06:03:41;13.32;;;9.48;;
35330;SDS011;21441;52.190;20.910;2023-04-16T06:06:09;11.43;;;9.07;;
35330;SDS011;21441;52.190;20.910;2023-04-16T06:08:36;11.68;;;9.00;;
35330;SDS011;21441;52.190;20.910;2023-04-16T06:11:03;10.40;;;8.50;;
35330;SDS011;21441;52.190;20.910;2023-04-16T06:13:32;11.40;;;8.52;;
35330;SDS011;21441;52.190;20.910;2023-04-16T06:15:59;9.90;;;8.65;;
35330;SDS011;21441;52.190;20.910;2023-04-16T06:18:26;10.55;;;8.57;;
35330;SDS011;21441;52.190;20.910;2023-04-16T06:20:53;13.45;;;9.35;;
35330;SDS011;21441;52.190;20.910;2023-04-16T06:23:20;12.55;;;9.10;;
35330;SDS011;21441;52.190;20.910;2023-04-16T06:25:47;12.25;;;8.88;;
35330;SDS011;21441;52.190;20.910;2023-04-16T06:28:14;12.80;;;9.38;;
35330;SDS011;21441;52.190;20.910;2023-04-16T06:30:43;11.70;;;8.95;;
35330;SDS011;21441;52.190;20.910;2023-04-16T06:33:10;10.23;;;8.27;;
35330;SDS011;21441;52.190;20.910;2023-04-16T06:35:37;12.95;;;9.93;;
35330;SDS011;21441;52.190;20.910;2023-04-16T06:38:04;11.25;;;8.63;;
35330;SDS011;21441;52.190;20.910;2023-04-16T06:40:31;11.57;;;8.18;;
35330;SDS011;21441;52.190;20.910;2023-04-16T06:42:58;10.55;;;8.40;;
35330;SDS011;21441;52.190;20.910;2023-04-16T06:45:26;11.35;;;8.40;;
35330;SDS011;21441;52.190;20.910;2023-04-16T06:47:54;8.95;;;7.82;;
35330;SDS011;21441;52.190;20.910;2023-04-16T06:50:23;10.15;;;7.53;;
35330;SDS011;21441;52.190;20.910;2023-04-16T06:52:50;9.70;;;7.25;;
35330;SDS011;21441;52.190;20.910;2023-04-16T06:55:18;10.40;;;7.90;;
35330;SDS011;21441;52.190;20.910;2023-04-16T06:57:45;9.00;;;7.00;;
35330;SDS011;21441;52.190;20.910;2023-04-16T07:00:12;10.00;;;7.85;;
35330;SDS011;21441;52.190;20.910;2023-04-16T07:02:39;7.82;;;7.03;;
35330;SDS011;21441;52.190;20.910;2023-04-16T07:05:08;9.98;;;7.70;;
35330;SDS011;21441;52.190;20.910;2023-04-16T07:07:35;8.13;;;7.18;;
35330;SDS011;21441;52.190;20.910;2023-04-16T07:10:02;8.50;;;7.28;;
35330;SDS011;21441;52.190;20.910;2023-04-16T07:12:30;7.88;;;7.05;;
35330;SDS011;21441;52.190;20.910;2023-04-16T07:14:58;9.38;;;7.45;;
35330;SDS011;21441;52.190;20.910;2023-04-16T07:17:25;9.00;;;7.38;;
35330;SDS011;21441;52.190;20.910;2023-04-16T07:19:52;9.52;;;7.88;;
35330;SDS011;21441;52.190;20.910;2023-04-16T07:22:20;9.63;;;7.80;;
35330;SDS011;21441;52.190;20.910;2023-04-16T07:24:48;9.07;;;7.97;;
35330;SDS011;21441;52.190;20.910;2023-04-16T07:27:14;7.78;;;6.85;;
35330;SDS011;21441;52.190;20.910;2023-04-16T07:29:42;9.85;;;8.32;;
35330;SDS011;21441;52.190;20.910;2023-04-16T07:32:10;9.73;;;8.68;;
35330;SDS011;21441;52.190;20.910;2023-04-16T07:34:37;9.50;;;7.82;;
35330;SDS011;21441;52.190;20.910;2023-04-16T07:37:04;8.75;;;7.20;;
35330;SDS011;21441;52.190;20.910;2023-04-16T07:39:33;10.38;;;8.18;;
35330;SDS011;21441;52.190;20.910;2023-04-16T07:42:00;9.45;;;8.02;;
35330;SDS011;21441;52.190;20.910;2023-04-16T07:44:28;10.43;;;8.05;;
35330;SDS011;21441;52.190;20.910;2023-04-16T07:46:55;12.18;;;10.25;;
35330;SDS011;21441;52.190;20.910;2023-04-16T07:49:22;9.50;;;8.55;;
35330;SDS011;21441;52.190;20.910;2023-04-16T07:51:49;9.68;;;8.18;;
35330;SDS011;21441;52.190;20.910;2023-04-16T07:54:16;8.70;;;7.72;;
35330;SDS011;21441;52.190;20.910;2023-04-16T07:56:45;7.90;;;7.10;;
35330;SDS011;21441;52.190;20.910;2023-04-16T07:59:12;9.15;;;7.40;;
35330;SDS011;21441;52.190;20.910;2023-04-16T08:01:39;10.10;;;7.50;;
35330;SDS011;21441;52.190;20.910;2023-04-16T08:04:07;8.73;;;6.95;;
35330;SDS011;21441;52.190;20.910;2023-04-16T08:06:34;11.65;;;8.15;;
35330;SDS011;21441;52.190;20.910;2023-04-16T08:09:01;10.75;;;8.73;;
35330;SDS011;21441;52.190;20.910;2023-04-16T08:11:28;11.27;;;8.30;;
35330;SDS011;21441;52.190;20.910;2023-04-16T08:13:57;10.88;;;8.95;;
35330;SDS011;21441;52.190;20.910;2023-04-16T08:16:24;9.43;;;8.20;;
35330;SDS011;21441;52.190;20.910;2023-04-16T08:18:51;12.02;;;8.65;;
35330;SDS011;21441;52.190;20.910;2023-04-16T08:21:18;10.60;;;7.88;;
35330;SDS011;21441;52.190;20.910;2023-04-16T08:23:45;11.30;;;8.02;;
35330;SDS011;21441;52.190;20.910;2023-04-16T08:26:12;9.73;;;7.88;;
35330;SDS011;21441;52.190;20.910;2023-04-16T08:28:40;9.75;;;7.68;;
35330;SDS011;21441;52.190;20.910;2023-04-16T08:31:10;8.45;;;6.55;;
35330;SDS011;21441;52.190;20.910;2023-04-16T08:33:37;8.50;;;7.10;;
35330;SDS011;21441;52.190;20.910;2023-04-16T08:36:06;8.40;;;7.35;;
35330;SDS011;21441;52.190;20.910;2023-04-16T08:38:33;10.30;;;7.95;;
35330;SDS011;21441;52.190;20.910;2023-04-16T08:41:01;13.05;;;7.95;;
35330;SDS011;21441;52.190;20.910;2023-04-16T08:43:32;9.35;;;6.80;;
35330;SDS011;21441;52.190;20.910;2023-04-16T08:46:02;8.80;;;6.50;;
35330;SDS011;21441;52.190;20.910;2023-04-16T08:48:32;9.05;;;7.18;;
35330;SDS011;21441;52.190;20.910;2023-04-16T08:51:00;8.65;;;7.55;;
35330;SDS011;21441;52.190;20.910;2023-04-16T08:53:28;8.98;;;8.07;;
35330;SDS011;21441;52.190;20.910;2023-04-16T08:56:01;8.10;;;7.30;;
35330;SDS011;21441;52.190;20.910;2023-04-16T08:58:31;9.18;;;6.65;;
35330;SDS011;21441;52.190;20.910;2023-04-16T09:01:00;8.57;;;7.15;;
35330;SDS011;21441;52.190;20.910;2023-04-16T09:03:29;12.13;;;7.30;;
35330;SDS011;21441;52.190;20.910;2023-04-16T09:05:59;7.45;;;6.65;;
35330;SDS011;21441;52.190;20.910;2023-04-16T09:08:28;8.02;;;6.90;;
35330;SDS011;21441;52.190;20.910;2023-04-16T09:10:55;7.35;;;6.65;;
35330;SDS011;21441;52.190;20.910;2023-04-16T09:13:22;8.43;;;7.57;;
35330;SDS011;21441;52.190;20.910;2023-04-16T09:15:50;8.82;;;7.22;;
35330;SDS011;21441;52.190;20.910;2023-04-16T09:18:19;8.88;;;6.93;;
35330;SDS011;21441;52.190;20.910;2023-04-16T09:20:46;8.40;;;7.15;;
35330;SDS011;21441;52.190;20.910;2023-04-16T09:23:17;7.93;;;7.13;;
35330;SDS011;21441;52.190;20.910;2023-04-16T09:25:44;9.27;;;7.85;;
35330;SDS011;21441;52.190;20.910;2023-04-16T09:28:11;8.27;;;6.75;;
35330;SDS011;21441;52.190;20.910;2023-04-16T09:30:38;7.60;;;6.80;;
35330;SDS011;21441;52.190;20.910;2023-04-16T09:33:12;8.45;;;7.43;;
35330;SDS011;21441;52.190;20.910;2023-04-16T09:35:44;8.93;;;7.07;;
35330;SDS011;21441;52.190;20.910;2023-04-16T09:38:12;7.68;;;6.68;;
35330;SDS011;21441;52.190;20.910;2023-04-16T09:40:40;6.55;;;5.95;;
35330;SDS011;21441;52.190;20.910;2023-04-16T09:43:11;6.35;;;5.75;;
35330;SDS011;21441;52.190;20.910;2023-04-16T09:45:46;8.15;;;7.22;;
35330;SDS011;21441;52.190;20.910;2023-04-16T09:48:14;7.55;;;6.60;;
35330;SDS011;21441;52.190;20.910;2023-04-16T09:50:45;7.43;;;6.63;;
35330;SDS011;21441;52.190;20.910;2023-04-16T09:53:22;7.70;;;6.90;;
35330;SDS011;21441;52.190;20.910;2023-04-16T09:55:51;8.35;;;6.28;;
35330;SDS011;21441;52.190;20.910;2023-04-16T09:58:18;6.93;;;6.32;;
35330;SDS011;21441;52.190;20.910;2023-04-16T10:00:45;7.25;;;6.55;;
35330;SDS011;21441;52.190;20.910;2023-04-16T10:03:13;7.97;;;6.90;;
35330;SDS011;21441;52.190;20.910;2023-04-16T10:05:40;7.55;;;6.15;;
35330;SDS011;21441;52.190;20.910;2023-04-16T10:08:10;7.32;;;6.60;;
35330;SDS011;21441;52.190;20.910;2023-04-16T10:10:38;7.57;;;6.85;;
35330;SDS011;21441;52.190;20.910;2023-04-16T10:13:07;11.48;;;7.90;;
35330;SDS011;21441;52.190;20.910;2023-04-16T10:15:35;8.95;;;8.05;;
35330;SDS011;21441;52.190;20.910;2023-04-16T10:18:03;8.98;;;8.07;;
35330;SDS011;21441;52.190;20.910;2023-04-16T10:20:31;8.73;;;7.55;;
35330;SDS011;21441;52.190;20.910;2023-04-16T10:22:58;8.18;;;7.35;;
35330;SDS011;21441;52.190;20.910;2023-04-16T10:25:25;9.32;;;7.50;;
35330;SDS011;21441;52.190;20.910;2023-04-16T10:27:54;7.80;;;7.05;;
35330;SDS011;21441;52.190;20.910;2023-04-16T10:30:25;7.10;;;6.40;;
35330;SDS011;21441;52.190;20.910;2023-04-16T10:32:53;8.05;;;7.25;;
35330;SDS011;21441;52.190;20.910;2023-04-16T10:35:21;7.15;;;6.38;;
35330;SDS011;21441;52.190;20.910;2023-04-16T10:37:54;6.95;;;6.25;;
35330;SDS011;21441;52.190;20.910;2023-04-16T10:40:22;6.95;;;6.22;;
35330;SDS011;21441;52.190;20.910;2023-04-16T10:42:54;7.38;;;6.68;;
35330;SDS011;21441;52.190;20.910;2023-04-16T10:45:26;6.72;;;6.03;;
35330;SDS011;21441;52.190;20.910;2023-04-16T10:47:56;7.57;;;6.45;;
35330;SDS011;21441;52.190;20.910;2023-04-16T10:50:23;7.32;;;6.63;;
35330;SDS011;21441;52.190;20.910;2023-04-16T10:56:08;8.25;;;6.55;;
35330;SDS011;21441;52.190;20.910;2023-04-16T10:58:40;7.95;;;6.70;;
35330;SDS011;21441;52.190;20.910;2023-04-16T11:01:11;8.82;;;7.28;;
35330;SDS011;21441;52.190;20.910;2023-04-16T11:03:41;7.53;;;6.68;;
35330;SDS011;21441;52.190;20.910;2023-04-16T11:06:10;8.82;;;7.38;;
35330;SDS011;21441;52.190;20.910;2023-04-16T11:08:39;7.90;;;7.10;;
35330;SDS011;21441;52.190;20.910;2023-04-16T11:11:08;8.43;;;7.45;;
35330;SDS011;21441;52.190;20.910;2023-04-16T11:13:35;7.50;;;6.80;;
35330;SDS011;21441;52.190;20.910;2023-04-16T11:16:03;7.72;;;6.55;;
35330;SDS011;21441;52.190;20.910;2023-04-16T11:18:32;7.55;;;6.63;;
35330;SDS011;21441;52.190;20.910;2023-04-16T11:20:59;7.25;;;6.53;;
35330;SDS011;21441;52.190;20.910;2023-04-16T11:23:27;6.43;;;5.82;;
35330;SDS011;21441;52.190;20.910;2023-04-16T11:25:54;6.82;;;6.13;;
35330;SDS011;21441;52.190;20.910;2023-04-16T11:28:32;7.22;;;6.22;;
35330;SDS011;21441;52.190;20.910;2023-04-16T11:31:09;7.30;;;6.57;;
35330;SDS011;21441;52.190;20.910;2023-04-16T11:33:39;7.43;;;6.72;;
35330;SDS011;21441;52.190;20.910;2023-04-16T11:36:06;8.05;;;7.15;;
35330;SDS011;21441;52.190;20.910;2023-04-16T11:38:34;7.90;;;7.10;;
35330;SDS011;21441;52.190;20.910;2023-04-16T11:41:02;7.43;;;6.63;;
35330;SDS011;21441;52.190;20.910;2023-04-16T11:43:30;9.50;;;8.43;;
35330;SDS011;21441;52.190;20.910;2023-04-16T11:45:57;7.80;;;7.05;;
35330;SDS011;21441;52.190;20.910;2023-04-16T11:51:12;7.07;;;6.40;;
35330;SDS011;21441;52.190;20.910;2023-04-16T11:53:44;7.30;;;6.55;;
35330;SDS011;21441;52.190;20.910;2023-04-16T11:56:12;7.97;;;6.63;;
35330;SDS011;21441;52.190;20.910;2023-04-16T11:58:40;9.82;;;7.35;;
35330;SDS011;21441;52.190;20.910;2023-04-16T12:01:07;7.47;;;6.28;;
35330;SDS011;21441;52.190;20.910;2023-04-16T12:03:39;7.57;;;6.78;;
35330;SDS011;21441;52.190;20.910;2023-04-16T12:06:09;7.20;;;6.55;;
35330;SDS011;21441;52.190;20.910;2023-04-16T12:08:37;7.15;;;6.45;;
35330;SDS011;21441;52.190;20.910;2023-04-16T12:11:04;7.57;;;6.72;;
35330;SDS011;21441;52.190;20.910;2023-04-16T12:13:31;7.30;;;6.60;;
35330;SDS011;21441;52.190;20.910;2023-04-16T12:16:15;6.75;;;6.05;;
35330;SDS011;21441;52.190;20.910;2023-04-16T12:18:57;6.78;;;6.18;;
35330;SDS011;21441;52.190;20.910;2023-04-16T12:21:35;7.07;;;6.38;;
35330;SDS011;21441;52.190;20.910;2023-04-16T12:24:04;7.15;;;6.45;;
35330;SDS011;21441;52.190;20.910;2023-04-16T12:26:35;6.90;;;6.20;;
35330;SDS011;21441;52.190;20.910;2023-04-16T12:29:17;7.13;;;6.43;;
35330;SDS011;21441;52.190;20.910;2023-04-16T12:31:46;6.32;;;5.72;;
35330;SDS011;21441;52.190;20.910;2023-04-16T12:34:13;7.07;;;6.38;;
35330;SDS011;21441;52.190;20.910;2023-04-16T12:36:43;5.68;;;5.18;;
35330;SDS011;21441;52.190;20.910;2023-04-16T12:39:12;6.55;;;5.95;;
35330;SDS011;21441;52.190;20.910;2023-04-16T12:41:40;7.13;;;5.78;;
35330;SDS011;21441;52.190;20.910;2023-04-16T12:44:09;6.20;;;5.63;;
35330;SDS011;21441;52.190;20.910;2023-04-16T12:46:38;6.60;;;5.97;;
35330;SDS011;21441;52.190;20.910;2023-04-16T12:49:06;6.32;;;5.72;;
35330;SDS011;21441;52.190;20.910;2023-04-16T12:51:35;6.25;;;5.65;;
35330;SDS011;21441;52.190;20.910;2023-04-16T12:54:04;8.40;;;6.70;;
35330;SDS011;21441;52.190;20.910;2023-04-16T12:56:32;6.53;;;5.82;;
35330;SDS011;21441;52.190;20.910;2023-04-16T12:59:00;6.93;;;6.22;;
35330;SDS011;21441;52.190;20.910;2023-04-16T13:01:28;6.60;;;6.00;;
35330;SDS011;21441;52.190;20.910;2023-04-16T13:03:55;6.50;;;5.85;;
35330;SDS011;21441;52.190;20.910;2023-04-16T13:06:22;6.97;;;6.38;;
35330;SDS011;21441;52.190;20.910;2023-04-16T13:08:49;7.60;;;6.82;;
35330;SDS011;21441;52.190;20.910;2023-04-16T13:11:17;7.00;;;6.22;;
35330;SDS011;21441;52.190;20.910;2023-04-16T13:13:45;6.35;;;5.85;;
35330;SDS011;21441;52.190;20.910;2023-04-16T13:16:12;7.10;;;6.25;;
35330;SDS011;21441;52.190;20.910;2023-04-16T13:18:39;7.78;;;6.85;;
35330;SDS011;21441;52.190;20.910;2023-04-16T13:21:06;7.32;;;6.63;;
35330;SDS011;21441;52.190;20.910;2023-04-16T13:23:34;6.60;;;6.00;;
35330;SDS011;21441;52.190;20.910;2023-04-16T13:26:01;7.03;;;6.32;;
35330;SDS011;21441;52.190;20.910;2023-04-16T13:28:30;11.30;;;10.13;;
35330;SDS011;21441;52.190;20.910;2023-04-16T13:30:56;11.27;;;9.73;;
35330;SDS011;21441;52.190;20.910;2023-04-16T13:33:24;7.18;;;6.57;;
35330;SDS011;21441;52.190;20.910;2023-04-16T13:35:51;6.90;;;6.30;;
35330;SDS011;21441;52.190;20.910;2023-04-16T13:38:18;7.40;;;6.60;;
35330;SDS011;21441;52.190;20.910;2023-04-16T13:40:45;6.90;;;6.30;;
35330;SDS011;21441;52.190;20.910;2023-04-16T13:43:13;6.70;;;6.13;;
35330;SDS011;21441;52.190;20.910;2023-04-16T13:45:43;7.43;;;6.72;;
35330;SDS011;21441;52.190;20.910;2023-04-16T13:48:10;6.50;;;5.90;;
35330;SDS011;21441;52.190;20.910;2023-04-16T13:50:37;7.18;;;6.47;;
35330;SDS011;21441;52.190;20.910;2023-04-16T13:53:04;7.50;;;6.80;;
35330;SDS011;21441;52.190;20.910;2023-04-16T13:55:31;8.45;;;6.30;;
35330;SDS011;21441;52.190;20.910;2023-04-16T13:57:59;6.78;;;6.18;;
35330;SDS011;21441;52.190;20.910;2023-04-16T14:00:26;6.40;;;5.80;;
35330;SDS011;21441;52.190;20.910;2023-04-16T14:02:55;6.57;;;5.97;;
35330;SDS011;21441;52.190;20.910;2023-04-16T14:05:21;6.90;;;6.30;;
35330;SDS011;21441;52.190;20.910;2023-04-16T14:07:49;6.57;;;5.97;;
35330;SDS011;21441;52.190;20.910;2023-04-16T14:10:16;6.53;;;5.93;;
35330;SDS011;21441;52.190;20.910;2023-04-16T14:12:43;7.22;;;6.53;;
35330;SDS011;21441;52.190;20.910;2023-04-16T14:15:10;6.82;;;6.18;;
35330;SDS011;21441;52.190;20.910;2023-04-16T14:17:39;6.60;;;6.00;;
35330;SDS011;21441;52.190;20.910;2023-04-16T14:20:09;6.63;;;5.95;;
35330;SDS011;21441;52.190;20.910;2023-04-16T14:22:38;6.07;;;5.57;;
35330;SDS011;21441;52.190;20.910;2023-04-16T14:25:07;6.82;;;6.22;;
35330;SDS011;21441;52.190;20.910;2023-04-16T14:27:34;6.03;;;5.45;;
35330;SDS011;21441;52.190;20.910;2023-04-16T14:30:01;6.70;;;6.13;;
35330;SDS011;21441;52.190;20.910;2023-04-16T14:32:29;6.93;;;6.32;;
35330;SDS011;21441;52.190;20.910;2023-04-16T14:34:56;6.30;;;5.70;;
35330;SDS011;21441;52.190;20.910;2023-04-16T14:37:24;5.95;;;5.43;;
35330;SDS011;21441;52.190;20.910;2023-04-16T14:39:52;6.32;;;5.68;;
35330;SDS011;21441;52.190;20.910;2023-04-16T14:42:19;7.28;;;5.80;;